createdAt,value
2023-02-27T00:04:50.571Z,79.49
2023-02-27T00:09:57.865Z,79.06
2023-02-27T00:15:10.137Z,78.99
2023-02-27T00:20:15.818Z,79.01
2023-02-27T00:25:18.771Z,78.95
2023-02-27T00:30:20.985Z,79.34
2023-02-27T00:35:24.522Z,79.25
2023-02-27T00:40:26.683Z,79.50
2023-02-27T00:45:28.625Z,79.30
2023-02-27T00:50:31.222Z,79.18
2023-02-27T00:55:33.692Z,79.05
2023-02-27T01:00:35.908Z,78.70
2023-02-27T01:05:38.054Z,78.53
2023-02-27T01:10:39.975Z,78.63
2023-02-27T01:15:42.023Z,78.73
2023-02-27T01:20:44.337Z,78.62
2023-02-27T01:25:49.096Z,78.26
2023-02-27T01:30:51.201Z,78.17
2023-02-27T01:35:53.369Z,78.17
2023-02-27T01:40:57.432Z,77.97
2023-02-27T01:46:00.981Z,78.03
2023-02-27T01:51:08.889Z,78.06
2023-02-27T01:56:16.644Z,77.67
2023-02-27T02:01:20.399Z,77.86
2023-02-27T02:06:23.629Z,77.72
2023-02-27T02:11:27.693Z,77.08
2023-02-27T02:16:44.123Z,77.66
2023-02-27T02:22:09.184Z,77.26
2023-02-27T02:27:40.269Z,76.75
2023-02-27T02:33:01.213Z,76.68
2023-02-27T02:38:47.660Z,76.42
2023-02-27T02:44:25.612Z,76.58
2023-02-27T02:50:00.797Z,76.60
2023-02-27T02:55:32.932Z,76.58
2023-02-27T03:00:40.571Z,76.34
2023-02-27T03:05:51.803Z,76.07
2023-02-27T03:11:01.004Z,75.78
2023-02-27T03:16:53.868Z,75.59
2023-02-27T03:22:02.806Z,75.60
2023-02-27T03:27:08.558Z,75.36
2023-02-27T03:32:22.947Z,75.68
2023-02-27T03:37:45.893Z,75.36
2023-02-27T03:42:57.281Z,75.60
2023-02-27T03:48:22.544Z,75.11
2023-02-27T03:53:49.786Z,75.18
2023-02-27T03:58:53.584Z,75.13
2023-02-27T04:04:04.928Z,74.94
2023-02-27T04:09:48.680Z,75.00
2023-02-27T04:14:59.772Z,75.12
2023-02-27T04:20:35.671Z,75.60
2023-02-27T04:26:15.267Z,75.48
2023-02-27T04:31:19.316Z,75.33
2023-02-27T04:36:35.053Z,75.80
2023-02-27T04:41:52.728Z,75.64
2023-02-27T04:46:57.179Z,75.93
2023-02-27T04:52:13.085Z,75.71
2023-02-27T04:57:22.659Z,76.22
2023-02-27T05:02:52.005Z,76.18
2023-02-27T05:08:02.403Z,76.17
2023-02-27T05:13:30.414Z,76.44
2023-02-27T05:18:32.717Z,76.65
2023-02-27T05:23:49.088Z,76.46
2023-02-27T05:29:27.692Z,76.73
2023-02-27T05:34:58.483Z,76.45
2023-02-27T05:40:08.490Z,76.55
2023-02-27T05:45:20.303Z,76.70
2023-02-27T05:50:30.826Z,76.78
2023-02-27T05:55:47.279Z,76.78
2023-02-27T06:01:02.298Z,76.97
2023-02-27T06:06:13.674Z,76.88
2023-02-27T06:11:17.877Z,76.74
2023-02-27T06:16:20.336Z,76.59
2023-02-27T06:21:22.584Z,76.50
2023-02-27T06:26:24.799Z,76.16
2023-02-27T06:31:26.994Z,76.00
2023-02-27T06:36:30.330Z,75.83
2023-02-27T06:41:32.351Z,75.94
2023-02-27T06:46:34.377Z,76.39
2023-02-27T06:51:36.964Z,76.01
2023-02-27T06:56:39.477Z,76.10
2023-02-27T07:01:41.833Z,76.15
2023-02-27T07:07:32.681Z,75.84
2023-02-27T07:12:08.075Z,76.14
2023-02-27T07:17:11.071Z,75.88
2023-02-27T07:22:15.705Z,75.86
2023-02-27T07:27:18.721Z,75.51
2023-02-27T07:32:27.511Z,75.29
2023-02-27T07:37:30.256Z,75.38
2023-02-27T07:42:33.165Z,74.85
2023-02-27T07:47:41.596Z,74.61
2023-02-27T07:52:49.714Z,74.75
2023-02-27T07:57:56.022Z,74.59
2023-02-27T08:02:58.736Z,75.11
2023-02-27T08:08:04.227Z,74.82
2023-02-27T08:13:06.504Z,74.79
2023-02-27T08:18:08.866Z,75.02
2023-02-27T08:23:12.092Z,74.82
2023-02-27T08:28:15.014Z,74.72
2023-02-27T08:33:21.021Z,74.32
2023-02-27T08:38:28.621Z,74.69
2023-02-27T08:43:31.608Z,74.25
2023-02-27T08:48:34.292Z,74.37
2023-02-27T08:53:36.618Z,74.26
2023-02-27T08:58:39.475Z,74.33
2023-02-27T09:03:49.475Z,74.70
2023-02-27T09:09:06.684Z,74.87
2023-02-27T09:14:20.052Z,74.66
2023-02-27T09:19:27.958Z,75.25
2023-02-27T09:24:33.515Z,74.75
2023-02-27T09:29:38.303Z,74.35
2023-02-27T09:34:40.507Z,74.60
2023-02-27T09:39:45.338Z,74.39
2023-02-27T09:45:04.080Z,73.95
2023-02-27T09:50:45.049Z,72.74
2023-02-27T09:55:51.547Z,72.53
2023-02-27T10:01:10.194Z,71.94
2023-02-27T10:06:44.069Z,71.71
2023-02-27T10:11:56.797Z,70.62
2023-02-27T10:17:03.862Z,70.36
2023-02-27T10:22:12.413Z,70.81
2023-02-27T10:27:22.805Z,70.16
2023-02-27T10:32:30.931Z,70.20
2023-02-27T10:37:37.301Z,70.66
2023-02-27T10:42:42.152Z,70.72
2023-02-27T10:47:45.498Z,70.53
2023-02-27T10:52:53.816Z,70.61
2023-02-27T10:57:58.403Z,69.11
2023-02-27T11:03:01.965Z,68.73
2023-02-27T11:08:21.467Z,68.06
2023-02-27T11:13:26.076Z,67.43
2023-02-27T11:18:30.550Z,66.43
2023-02-27T11:23:34.053Z,66.62
2023-02-27T11:28:36.552Z,67.28
2023-02-27T11:33:40.364Z,66.73
2023-02-27T11:38:50.354Z,66.56
2023-02-27T11:43:53.407Z,66.52
2023-02-27T11:49:07.218Z,66.45
2023-02-27T11:54:32.553Z,66.00
2023-02-27T11:59:41.824Z,66.12
2023-02-27T12:04:52.407Z,65.89
2023-02-27T12:10:11.792Z,65.57
2023-02-27T12:15:24.539Z,65.01
2023-02-27T12:20:58.684Z,65.31
2023-02-27T12:26:25.351Z,65.04
2023-02-27T12:31:32.646Z,64.73
2023-02-27T12:36:35.314Z,64.98
2023-02-27T12:41:52.496Z,64.44
2023-02-27T12:46:57.540Z,63.82
2023-02-27T12:52:10.275Z,63.14
2023-02-27T12:57:28.463Z,63.27
2023-02-27T13:02:44.982Z,62.96
2023-02-27T13:08:16.458Z,62.91
2023-02-27T13:13:26.332Z,62.69
2023-02-27T13:18:37.525Z,63.18
2023-02-27T13:24:03.071Z,63.24
2023-02-27T13:29:06.485Z,63.00
2023-02-27T13:34:17.742Z,62.51
2023-02-27T13:39:53.556Z,62.22
2023-02-27T13:45:03.185Z,61.68
2023-02-27T13:50:24.977Z,62.11
2023-02-27T13:55:31.133Z,62.49
2023-02-27T14:00:37.968Z,63.03
2023-02-27T14:05:44.799Z,63.44
2023-02-27T14:11:16.740Z,64.00
2023-02-27T14:16:54.645Z,64.77
2023-02-27T14:22:10.885Z,65.17
2023-02-27T14:27:25.178Z,65.00
2023-02-27T14:32:33.533Z,64.72
2023-02-27T14:37:38.253Z,65.01
2023-02-27T14:42:59.439Z,64.95
2023-02-27T14:48:02.008Z,65.34
2023-02-27T14:53:06.447Z,65.62
2023-02-27T14:58:23.703Z,65.62
2023-02-27T15:03:57.517Z,65.54
2023-02-27T15:09:00.054Z,64.88
2023-02-27T15:14:06.399Z,64.86
2023-02-27T15:19:13.421Z,65.00
2023-02-27T15:24:23.665Z,64.72
2023-02-27T15:29:37.435Z,64.19
2023-02-27T15:34:44.006Z,64.36
2023-02-27T15:39:47.106Z,63.58
2023-02-27T15:44:50.690Z,63.24
2023-02-27T15:50:01.662Z,63.38
2023-02-27T15:55:10.643Z,63.98
2023-02-27T16:00:16.807Z,63.03
2023-02-27T16:05:26.520Z,63.39
2023-02-27T16:10:35.512Z,63.93
2023-02-27T16:15:39.938Z,64.19
2023-02-27T16:20:54.851Z,64.34
2023-02-27T16:26:27.331Z,64.69
2023-02-27T16:31:46.746Z,65.06
2023-02-27T16:36:58.115Z,65.40
2023-02-27T16:42:01.816Z,65.83
2023-02-27T16:47:04.061Z,66.17
2023-02-27T16:52:11.502Z,66.50
2023-02-27T16:57:15.063Z,66.61
2023-02-27T17:02:17.233Z,67.02
2023-02-27T17:07:19.945Z,66.90
2023-02-27T17:12:22.276Z,67.21
2023-02-27T17:17:24.252Z,67.11
2023-02-27T17:22:26.668Z,67.43
2023-02-27T17:27:28.651Z,67.15
2023-02-27T17:32:31.567Z,67.29
2023-02-27T17:37:34.404Z,67.36
2023-02-27T17:42:37.155Z,67.48
2023-02-27T17:47:39.204Z,67.45
2023-02-27T17:52:41.058Z,67.57
2023-02-27T17:57:43.939Z,67.18
2023-02-27T18:02:47.922Z,66.60
2023-02-27T18:07:50.173Z,66.76
2023-02-27T18:12:52.630Z,66.37
2023-02-27T18:17:54.813Z,66.37
2023-02-27T18:22:57.487Z,66.33
2023-02-27T18:28:01.815Z,66.29
2023-02-27T18:33:04.146Z,66.20
2023-02-27T18:38:06.748Z,66.32
2023-02-27T18:43:10.614Z,65.98
2023-02-27T18:48:15.934Z,66.22
2023-02-27T18:53:18.920Z,66.09
2023-02-27T18:58:21.439Z,65.85
2023-02-27T19:03:25.418Z,65.57
2023-02-27T19:08:29.355Z,65.97
2023-02-27T19:13:31.216Z,65.96
2023-02-27T19:18:33.490Z,65.63
2023-02-27T19:23:36.539Z,65.75
2023-02-27T19:28:38.500Z,65.93
2023-02-27T19:33:41.038Z,65.99
2023-02-27T19:38:43.765Z,66.11
2023-02-27T19:43:46.959Z,65.89
2023-02-27T19:48:50.197Z,66.32
2023-02-27T19:53:53.824Z,66.48
2023-02-27T19:58:56.215Z,66.47
2023-02-27T20:04:00.337Z,66.32
2023-02-27T20:09:02.744Z,65.93
2023-02-27T20:14:05.191Z,66.41
2023-02-27T20:19:10.976Z,66.26
2023-02-27T20:24:14.625Z,66.25
2023-02-27T20:29:22.987Z,66.47
2023-02-27T20:34:26.439Z,66.70
2023-02-27T20:39:29.128Z,67.14
2023-02-27T20:44:30.930Z,67.16
2023-02-27T20:49:32.802Z,67.60
2023-02-27T20:54:34.645Z,67.96
2023-02-27T20:59:36.754Z,67.99
2023-02-27T21:04:47.789Z,68.00
2023-02-27T21:09:50.899Z,67.66
2023-02-27T21:14:52.757Z,67.90
2023-02-27T21:19:54.760Z,68.14
2023-02-27T21:24:57.806Z,68.23
2023-02-27T21:29:59.970Z,68.38
2023-02-27T21:35:01.832Z,68.47
2023-02-27T21:40:04.967Z,68.48
2023-02-27T21:45:07.801Z,68.81
2023-02-27T21:50:14.660Z,69.18
2023-02-27T21:55:17.620Z,69.15
2023-02-27T22:00:20.532Z,69.32
2023-02-27T22:05:22.692Z,69.09
2023-02-27T22:10:25.712Z,68.70
2023-02-27T22:15:32.118Z,68.59
2023-02-27T22:20:35.646Z,67.95
2023-02-27T22:25:39.804Z,67.78
2023-02-27T22:30:42.198Z,67.41
2023-02-27T22:35:44.571Z,67.40
2023-02-27T22:40:46.739Z,67.30
2023-02-27T22:45:52.441Z,67.02
2023-02-27T22:51:11.332Z,67.27
2023-02-27T22:56:16.548Z,67.00
2023-02-27T23:01:28.874Z,66.56
2023-02-27T23:06:35.431Z,66.81
2023-02-27T23:11:37.917Z,66.74
2023-02-27T23:16:45.620Z,66.65
2023-02-27T23:21:48.462Z,66.48
2023-02-27T23:26:52.263Z,66.79
2023-02-27T23:31:54.435Z,67.11
2023-02-27T23:36:56.839Z,66.92
2023-02-27T23:41:58.821Z,67.05
2023-02-27T23:47:03.945Z,66.77
2023-02-27T23:52:05.976Z,66.59
2023-02-27T23:57:08.960Z,66.57
